메인 페이지
METAR-TAF:

METAR-TAF

공항 :

New Iberia, 루이지애나, 미국

위도: 30-01-44N, 경도: 091-53-04W, 고도: 7m

현재 날씨관측

예보는 37분 전, 13:53시(UTC)에 발표되었습니다.
5kt
온도 14°C
습도 82%
기압 1021 hPa
시정: 16.1km
고도 11000ft 상공 구름 조금

METAR: KARA 191353Z 17005KT 10SM FEW110 14/11 A3016 RMK AO2 SLP211 T01390106

시각: 08:30 (14:30 UTC)

예보

예보는 2 시간 58분 전, 11:32시(UTC)에 발표되었습니다.
예보 대상 시간: 19일 12시부터 20일 12시까지 (UTC)
여러 방향의 바람 4kt
시정: 10km
고도 8000ft 상공 구름 보통
고도 11000ft 상공 구름 많음
19일 2200시부터 (UTC)
8kt
시정: 10km
고도 1500ft 상공 구름 보통
고도 2500ft 상공 흐림
시계 내 소나기
20일 0300시부터 (UTC)
북북동8kt
시정: 6.4km
고도 700ft 상공 흐림
약한소나기
20일 0900시부터 (UTC)
11kt
시정: 10km
고도 700ft 상공 흐림
시계 내 소나기

TAF: KARA 191132Z 1912/2012 VRB04KT P6SM SCT080 BKN110 FM192200 36008KT P6SM VCSH SCT015 OVC025 FM200300 02008KT 4SM -SHRA OVC007 FM200900 01011KT P6SM VCSH OVC007

4,000개 이상의 공항 관측 자료 및 예보 (METAR 및 TAF 보고).

지도상에서 검색 가능한 기상관측소가 노란 점과 빨간 점으로 표시되어 있습니다.

기상관측소 명을 보려면 표시 위로 마우스를 이동하세요.

날씨 관측과 예보를 보려면 클릭하세요.

지도 변경 : 확대하려면 엑스 표시가 있는 녹색 버튼, 축소하려면 빼기 표시가 있는 녹색 버튼, 다음 페이지의 지도를 보려면 녹색 화살표를 클릭하세요.


METAR-TAF: